TimeEDT,TemperatureF,Dew PointF,Humidity,Sea Level PressureIn,VisibilityMPH,Wind Direction,Wind SpeedMPH,Gust SpeedMPH,PrecipitationIn,Events,Conditions,WindDirDegrees,DateUTC
12:56 AM,70.0,65.8,87,29.98,9.0,Calm,Calm,-,N/A,,Clear,0,2013-05-21 04:56:00
1:56 AM,69.8,66.2,88,29.95,9.0,Calm,Calm,-,N/A,,Clear,0,2013-05-21 05:56:00
2:56 AM,68.9,66.9,93,29.96,7.0,SSW,3.5,-,N/A,,Clear,200,2013-05-21 06:56:00
3:56 AM,68.9,65.8,90,29.96,7.0,Calm,Calm,-,N/A,,Clear,0,2013-05-21 07:56:00
4:56 AM,68.0,65.8,93,29.97,6.0,Calm,Calm,-,N/A,,Clear,0,2013-05-21 08:56:00
5:56 AM,66.9,65.8,96,29.98,4.0,Calm,Calm,-,N/A,,Clear,0,2013-05-21 09:56:00
6:56 AM,68.0,65.8,93,29.98,4.0,Calm,Calm,-,N/A,,Clear,0,2013-05-21 10:56:00
7:56 AM,70.9,66.9,87,29.99,6.0,Calm,Calm,-,N/A,,Clear,0,2013-05-21 11:56:00
8:56 AM,73.9,66.9,79,29.98,9.0,South,5.8,-,N/A,,Partly Cloudy,190,2013-05-21 12:56:00
9:56 AM,77.9,68.0,71,29.96,10.0,SW,6.9,-,N/A,,Clear,220,2013-05-21 13:56:00
10:56 AM,82.4,68.0,62,29.93,10.0,SW,10.4,16.1,N/A,,Scattered Clouds,220,2013-05-21 14:56:00
11:56 AM,82.9,68.0,60,29.95,10.0,SSW,10.4,-,N/A,,Partly Cloudy,200,2013-05-21 15:56:00
12:56 PM,84.9,66.9,55,29.94,10.0,SW,10.4,-,N/A,,Partly Cloudy,220,2013-05-21 16:56:00
1:56 PM,84.9,65.8,53,29.92,10.0,SW,9.2,-,N/A,,Partly Cloudy,220,2013-05-21 17:56:00
2:56 PM,86.9,64.9,48,29.89,10.0,SW,11.5,17.3,N/A,,Clear,220,2013-05-21 18:56:00
3:56 PM,86.9,63.0,45,29.88,10.0,SW,11.5,17.3,N/A,,Partly Cloudy,220,2013-05-21 19:56:00
4:56 PM,86.9,61.9,43,29.87,10.0,SSW,8.1,-,0.00,,Clear,210,2013-05-21 20:56:00
5:56 PM,86.9,61.0,42,29.86,10.0,SSW,9.2,18.4,N/A,,Partly Cloudy,200,2013-05-21 21:56:00
6:56 PM,84.9,61.9,46,29.86,10.0,SSW,6.9,-,N/A,,Partly Cloudy,210,2013-05-21 22:56:00
7:56 PM,82.9,61.9,49,29.86,10.0,SW,5.8,-,N/A,,Clear,220,2013-05-21 23:56:00
8:56 PM,79.0,61.9,56,29.86,10.0,SW,4.6,-,N/A,,Clear,220,2013-05-22 00:56:00
9:56 PM,75.9,61.9,62,29.88,10.0,Calm,Calm,-,N/A,,Clear,0,2013-05-22 01:56:00
10:56 PM,73.9,63.0,68,29.88,10.0,Variable,4.6,-,N/A,,Clear,0,2013-05-22 02:56:00
11:56 PM,72.9,63.9,73,29.89,10.0,SSW,5.8,-,N/A,,Clear,210,2013-05-22 03:56:00